OH50 weather

Lindsey L.S. Airport
Circleville, Ohio, United States

Public forecast

Using degrees Fahrenheit for public forecast. Weather courtesy of forecast.io.

METAR (pilot weather report)

Closest report is Rickenbacker International Airport, 10.9 nm (20.1 km) NE. Retrieved 2019/05/20 19:15 UTC (0 seconds ago):

KLCK 201915Z AUTO 26012G20KT 10SM SCT045 21/10 A2998 RMK AO2 T02070103

TAF (pilot weather forecast)

Closest forecast is Rickenbacker International Airport, 10.9 nm (20.1 km) NE. Retrieved 2019/05/20 18:45 UTC (21 minutes ago):

TAF KLCK 201740Z 2018/2118 27014G22KT P6SM BKN045 FM210000 32010KT P6SM BKN045 FM210400 34006KT P6SM SCT045 FM210800 01004KT P6SM SCT150 FM211100 05005KT P6SM SCT150 FM211300 06007KT P6SM BKN120